sensor_id;sensor_type;location;lat;lon;timestamp;P1;durP1;ratioP1;P2;durP2;ratioP2
2998;SDS011;1509;51.964;7.628;2022-10-16T00:00:30;8.27;;;5.13;;
2998;SDS011;1509;51.964;7.628;2022-10-16T00:02:56;8.30;;;5.90;;
2998;SDS011;1509;51.964;7.628;2022-10-16T00:05:22;8.57;;;5.60;;
2998;SDS011;1509;51.964;7.628;2022-10-16T00:07:48;7.87;;;5.90;;
2998;SDS011;1509;51.964;7.628;2022-10-16T00:10:14;8.93;;;6.23;;
2998;SDS011;1509;51.964;7.628;2022-10-16T00:12:40;6.57;;;5.13;;
2998;SDS011;1509;51.964;7.628;2022-10-16T00:15:06;7.07;;;5.20;;
2998;SDS011;1509;51.964;7.628;2022-10-16T00:17:32;7.20;;;5.43;;
2998;SDS011;1509;51.964;7.628;2022-10-16T00:19:58;8.00;;;6.30;;
2998;SDS011;1509;51.964;7.628;2022-10-16T00:22:24;9.07;;;5.73;;
2998;SDS011;1509;51.964;7.628;2022-10-16T00:24:50;10.17;;;6.87;;
2998;SDS011;1509;51.964;7.628;2022-10-16T00:27:16;7.10;;;5.37;;
2998;SDS011;1509;51.964;7.628;2022-10-16T00:29:42;7.37;;;5.53;;
2998;SDS011;1509;51.964;7.628;2022-10-16T00:32:08;6.53;;;5.60;;
2998;SDS011;1509;51.964;7.628;2022-10-16T00:34:34;8.70;;;5.90;;
2998;SDS011;1509;51.964;7.628;2022-10-16T00:37:00;7.37;;;6.07;;
2998;SDS011;1509;51.964;7.628;2022-10-16T00:39:26;8.60;;;6.37;;
2998;SDS011;1509;51.964;7.628;2022-10-16T00:41:52;8.70;;;6.07;;
2998;SDS011;1509;51.964;7.628;2022-10-16T00:47:03;14.73;;;7.30;;
2998;SDS011;1509;51.964;7.628;2022-10-16T00:49:29;10.07;;;6.40;;
2998;SDS011;1509;51.964;7.628;2022-10-16T00:51:55;10.63;;;6.90;;
2998;SDS011;1509;51.964;7.628;2022-10-16T00:54:25;9.07;;;7.40;;
2998;SDS011;1509;51.964;7.628;2022-10-16T00:56:52;6.83;;;6.10;;
2998;SDS011;1509;51.964;7.628;2022-10-16T00:59:20;10.87;;;8.50;;
2998;SDS011;1509;51.964;7.628;2022-10-16T01:01:49;10.20;;;7.40;;
2998;SDS011;1509;51.964;7.628;2022-10-16T01:04:15;18.57;;;7.07;;
2998;SDS011;1509;51.964;7.628;2022-10-16T01:09:29;9.47;;;6.83;;
2998;SDS011;1509;51.964;7.628;2022-10-16T01:14:57;12.07;;;7.10;;
2998;SDS011;1509;51.964;7.628;2022-10-16T01:20:01;13.30;;;6.40;;
2998;SDS011;1509;51.964;7.628;2022-10-16T01:22:33;9.57;;;6.87;;
2998;SDS011;1509;51.964;7.628;2022-10-16T01:25:00;11.37;;;6.33;;
2998;SDS011;1509;51.964;7.628;2022-10-16T01:27:27;11.03;;;7.30;;
2998;SDS011;1509;51.964;7.628;2022-10-16T01:30:10;12.20;;;7.57;;
2998;SDS011;1509;51.964;7.628;2022-10-16T01:37:48;9.00;;;6.97;;
2998;SDS011;1509;51.964;7.628;2022-10-16T01:40:16;9.03;;;7.00;;
2998;SDS011;1509;51.964;7.628;2022-10-16T01:42:48;12.60;;;6.50;;
2998;SDS011;1509;51.964;7.628;2022-10-16T01:45:16;8.60;;;6.33;;
2998;SDS011;1509;51.964;7.628;2022-10-16T01:47:43;13.03;;;6.00;;
2998;SDS011;1509;51.964;7.628;2022-10-16T01:50:10;13.10;;;7.20;;
2998;SDS011;1509;51.964;7.628;2022-10-16T01:52:42;8.60;;;6.03;;
2998;SDS011;1509;51.964;7.628;2022-10-16T01:55:09;13.23;;;7.03;;
2998;SDS011;1509;51.964;7.628;2022-10-16T01:57:36;9.20;;;5.50;;
2998;SDS011;1509;51.964;7.628;2022-10-16T02:00:05;8.30;;;6.23;;
2998;SDS011;1509;51.964;7.628;2022-10-16T02:02:32;7.87;;;5.50;;
2998;SDS011;1509;51.964;7.628;2022-10-16T02:05:04;8.33;;;6.13;;
2998;SDS011;1509;51.964;7.628;2022-10-16T02:07:30;7.87;;;5.50;;
2998;SDS011;1509;51.964;7.628;2022-10-16T02:09:56;7.40;;;5.23;;
2998;SDS011;1509;51.964;7.628;2022-10-16T02:12:30;8.73;;;7.23;;
2998;SDS011;1509;51.964;7.628;2022-10-16T02:14:57;10.27;;;5.70;;
2998;SDS011;1509;51.964;7.628;2022-10-16T02:17:23;7.27;;;5.70;;
2998;SDS011;1509;51.964;7.628;2022-10-16T02:19:49;8.83;;;6.13;;
2998;SDS011;1509;51.964;7.628;2022-10-16T02:25:12;8.07;;;4.77;;
2998;SDS011;1509;51.964;7.628;2022-10-16T02:27:54;6.60;;;5.47;;
2998;SDS011;1509;51.964;7.628;2022-10-16T02:30:23;9.47;;;5.80;;
2998;SDS011;1509;51.964;7.628;2022-10-16T02:32:51;10.00;;;6.10;;
2998;SDS011;1509;51.964;7.628;2022-10-16T02:35:18;7.17;;;5.57;;
2998;SDS011;1509;51.964;7.628;2022-10-16T02:37:45;10.20;;;5.43;;
2998;SDS011;1509;51.964;7.628;2022-10-16T02:40:11;9.43;;;5.20;;
2998;SDS011;1509;51.964;7.628;2022-10-16T02:42:38;10.33;;;6.23;;
2998;SDS011;1509;51.964;7.628;2022-10-16T02:45:05;7.53;;;5.50;;
2998;SDS011;1509;51.964;7.628;2022-10-16T02:47:32;11.40;;;5.40;;
2998;SDS011;1509;51.964;7.628;2022-10-16T02:49:58;7.00;;;5.00;;
2998;SDS011;1509;51.964;7.628;2022-10-16T02:52:24;10.43;;;5.53;;
2998;SDS011;1509;51.964;7.628;2022-10-16T02:54:50;9.60;;;6.13;;
2998;SDS011;1509;51.964;7.628;2022-10-16T02:57:16;9.10;;;5.57;;
2998;SDS011;1509;51.964;7.628;2022-10-16T02:59:43;7.60;;;5.87;;
2998;SDS011;1509;51.964;7.628;2022-10-16T03:02:09;7.90;;;5.20;;
2998;SDS011;1509;51.964;7.628;2022-10-16T03:04:35;7.93;;;5.80;;
2998;SDS011;1509;51.964;7.628;2022-10-16T03:07:01;6.00;;;5.40;;
2998;SDS011;1509;51.964;7.628;2022-10-16T03:09:27;7.87;;;5.30;;
2998;SDS011;1509;51.964;7.628;2022-10-16T03:11:53;8.07;;;5.00;;
2998;SDS011;1509;51.964;7.628;2022-10-16T03:14:19;8.00;;;5.70;;
2998;SDS011;1509;51.964;7.628;2022-10-16T03:16:45;8.03;;;5.00;;
2998;SDS011;1509;51.964;7.628;2022-10-16T03:19:11;6.80;;;5.63;;
2998;SDS011;1509;51.964;7.628;2022-10-16T03:21:37;7.77;;;5.00;;
2998;SDS011;1509;51.964;7.628;2022-10-16T03:24:05;4.73;;;3.70;;
2998;SDS011;1509;51.964;7.628;2022-10-16T03:26:31;4.87;;;3.90;;
2998;SDS011;1509;51.964;7.628;2022-10-16T03:28:57;6.80;;;4.50;;
2998;SDS011;1509;51.964;7.628;2022-10-16T03:31:23;7.43;;;4.20;;
2998;SDS011;1509;51.964;7.628;2022-10-16T03:33:49;8.40;;;4.30;;
2998;SDS011;1509;51.964;7.628;2022-10-16T03:36:15;7.90;;;4.40;;
2998;SDS011;1509;51.964;7.628;2022-10-16T03:38:41;8.20;;;4.40;;
2998;SDS011;1509;51.964;7.628;2022-10-16T03:41:07;5.77;;;4.50;;
2998;SDS011;1509;51.964;7.628;2022-10-16T03:43:33;5.90;;;4.23;;
2998;SDS011;1509;51.964;7.628;2022-10-16T03:45:59;6.00;;;4.50;;
2998;SDS011;1509;51.964;7.628;2022-10-16T03:48:25;5.07;;;3.97;;
2998;SDS011;1509;51.964;7.628;2022-10-16T03:50:51;5.60;;;4.63;;
2998;SDS011;1509;51.964;7.628;2022-10-16T03:53:17;7.67;;;4.67;;
2998;SDS011;1509;51.964;7.628;2022-10-16T03:55:43;5.50;;;4.60;;
2998;SDS011;1509;51.964;7.628;2022-10-16T03:58:10;6.47;;;4.50;;
2998;SDS011;1509;51.964;7.628;2022-10-16T04:00:39;8.90;;;6.00;;
2998;SDS011;1509;51.964;7.628;2022-10-16T04:03:06;6.83;;;5.33;;
2998;SDS011;1509;51.964;7.628;2022-10-16T04:05:31;6.57;;;4.57;;
2998;SDS011;1509;51.964;7.628;2022-10-16T04:07:57;7.30;;;5.30;;
2998;SDS011;1509;51.964;7.628;2022-10-16T04:10:23;10.63;;;4.70;;
2998;SDS011;1509;51.964;7.628;2022-10-16T04:12:49;6.23;;;4.60;;
2998;SDS011;1509;51.964;7.628;2022-10-16T04:15:15;5.07;;;4.20;;
2998;SDS011;1509;51.964;7.628;2022-10-16T04:17:42;9.73;;;4.83;;
2998;SDS011;1509;51.964;7.628;2022-10-16T04:20:08;5.30;;;4.53;;
2998;SDS011;1509;51.964;7.628;2022-10-16T04:22:34;7.10;;;5.03;;
2998;SDS011;1509;51.964;7.628;2022-10-16T04:25:00;6.03;;;4.70;;
2998;SDS011;1509;51.964;7.628;2022-10-16T04:27:26;8.20;;;5.37;;
2998;SDS011;1509;51.964;7.628;2022-10-16T04:29:52;9.73;;;5.10;;
2998;SDS011;1509;51.964;7.628;2022-10-16T04:32:17;7.30;;;5.17;;
2998;SDS011;1509;51.964;7.628;2022-10-16T04:34:43;10.20;;;5.10;;
2998;SDS011;1509;51.964;7.628;2022-10-16T04:37:09;6.67;;;5.03;;
2998;SDS011;1509;51.964;7.628;2022-10-16T04:39:35;5.70;;;4.33;;
2998;SDS011;1509;51.964;7.628;2022-10-16T04:42:01;6.10;;;4.60;;
2998;SDS011;1509;51.964;7.628;2022-10-16T04:44:27;7.43;;;6.10;;
2998;SDS011;1509;51.964;7.628;2022-10-16T04:46:53;5.43;;;4.23;;
2998;SDS011;1509;51.964;7.628;2022-10-16T04:49:19;5.17;;;4.33;;
2998;SDS011;1509;51.964;7.628;2022-10-16T04:51:45;7.17;;;4.43;;
2998;SDS011;1509;51.964;7.628;2022-10-16T04:54:11;7.43;;;4.90;;
2998;SDS011;1509;51.964;7.628;2022-10-16T04:56:37;5.97;;;3.63;;
2998;SDS011;1509;51.964;7.628;2022-10-16T04:59:13;4.70;;;4.20;;
2998;SDS011;1509;51.964;7.628;2022-10-16T05:01:39;8.67;;;4.60;;
2998;SDS011;1509;51.964;7.628;2022-10-16T05:04:05;5.90;;;4.00;;
2998;SDS011;1509;51.964;7.628;2022-10-16T05:06:31;9.90;;;4.43;;
2998;SDS011;1509;51.964;7.628;2022-10-16T05:08:57;9.43;;;4.13;;
2998;SDS011;1509;51.964;7.628;2022-10-16T05:11:23;7.07;;;3.90;;
2998;SDS011;1509;51.964;7.628;2022-10-16T05:13:49;7.63;;;5.67;;
2998;SDS011;1509;51.964;7.628;2022-10-16T05:16:15;7.30;;;4.00;;
2998;SDS011;1509;51.964;7.628;2022-10-16T05:18:41;4.83;;;4.10;;
2998;SDS011;1509;51.964;7.628;2022-10-16T05:21:07;4.63;;;3.37;;
2998;SDS011;1509;51.964;7.628;2022-10-16T05:23:33;5.70;;;3.93;;
2998;SDS011;1509;51.964;7.628;2022-10-16T05:25:59;5.60;;;3.50;;
2998;SDS011;1509;51.964;7.628;2022-10-16T05:28:26;5.03;;;4.07;;
2998;SDS011;1509;51.964;7.628;2022-10-16T05:30:52;4.63;;;4.00;;
2998;SDS011;1509;51.964;7.628;2022-10-16T05:33:22;6.20;;;3.60;;
2998;SDS011;1509;51.964;7.628;2022-10-16T05:35:48;5.40;;;3.43;;
2998;SDS011;1509;51.964;7.628;2022-10-16T05:38:15;5.73;;;3.10;;
2998;SDS011;1509;51.964;7.628;2022-10-16T05:40:41;5.20;;;3.93;;
2998;SDS011;1509;51.964;7.628;2022-10-16T05:43:07;5.87;;;3.10;;
2998;SDS011;1509;51.964;7.628;2022-10-16T05:45:33;7.60;;;3.50;;
2998;SDS011;1509;51.964;7.628;2022-10-16T05:47:59;4.77;;;2.87;;
2998;SDS011;1509;51.964;7.628;2022-10-16T05:50:25;3.87;;;2.80;;
2998;SDS011;1509;51.964;7.628;2022-10-16T05:52:51;4.83;;;3.07;;
2998;SDS011;1509;51.964;7.628;2022-10-16T05:55:17;4.67;;;3.60;;
2998;SDS011;1509;51.964;7.628;2022-10-16T05:57:43;4.80;;;4.23;;
2998;SDS011;1509;51.964;7.628;2022-10-16T06:00:09;4.90;;;3.57;;
2998;SDS011;1509;51.964;7.628;2022-10-16T06:02:36;5.17;;;3.17;;
2998;SDS011;1509;51.964;7.628;2022-10-16T06:05:02;6.93;;;2.40;;
2998;SDS011;1509;51.964;7.628;2022-10-16T06:07:27;6.57;;;3.37;;
2998;SDS011;1509;51.964;7.628;2022-10-16T06:09:53;3.50;;;2.63;;
2998;SDS011;1509;51.964;7.628;2022-10-16T06:12:19;3.73;;;2.70;;
2998;SDS011;1509;51.964;7.628;2022-10-16T06:14:45;4.00;;;2.83;;
2998;SDS011;1509;51.964;7.628;2022-10-16T06:17:14;3.43;;;2.53;;
2998;SDS011;1509;51.964;7.628;2022-10-16T06:19:40;4.13;;;3.40;;
2998;SDS011;1509;51.964;7.628;2022-10-16T06:22:06;4.20;;;3.00;;
2998;SDS011;1509;51.964;7.628;2022-10-16T06:24:31;3.50;;;2.50;;
2998;SDS011;1509;51.964;7.628;2022-10-16T06:26:57;3.43;;;2.50;;
2998;SDS011;1509;51.964;7.628;2022-10-16T06:29:23;3.77;;;2.73;;
2998;SDS011;1509;51.964;7.628;2022-10-16T06:31:48;4.47;;;2.70;;
2998;SDS011;1509;51.964;7.628;2022-10-16T06:34:14;6.50;;;2.43;;
2998;SDS011;1509;51.964;7.628;2022-10-16T06:36:40;4.83;;;2.47;;
2998;SDS011;1509;51.964;7.628;2022-10-16T06:39:09;3.73;;;2.70;;
2998;SDS011;1509;51.964;7.628;2022-10-16T06:41:34;5.87;;;2.40;;
2998;SDS011;1509;51.964;7.628;2022-10-16T06:44:00;4.77;;;2.53;;
2998;SDS011;1509;51.964;7.628;2022-10-16T06:46:26;3.27;;;2.53;;
2998;SDS011;1509;51.964;7.628;2022-10-16T06:48:53;3.40;;;2.60;;
2998;SDS011;1509;51.964;7.628;2022-10-16T06:51:20;3.80;;;3.20;;
2998;SDS011;1509;51.964;7.628;2022-10-16T06:53:47;3.50;;;2.73;;
2998;SDS011;1509;51.964;7.628;2022-10-16T06:56:17;3.23;;;2.87;;
2998;SDS011;1509;51.964;7.628;2022-10-16T06:58:44;4.63;;;2.50;;
2998;SDS011;1509;51.964;7.628;2022-10-16T07:01:10;4.30;;;2.77;;
2998;SDS011;1509;51.964;7.628;2022-10-16T07:03:37;3.27;;;2.90;;
2998;SDS011;1509;51.964;7.628;2022-10-16T07:06:03;5.80;;;2.63;;
2998;SDS011;1509;51.964;7.628;2022-10-16T07:08:30;4.83;;;2.47;;
2998;SDS011;1509;51.964;7.628;2022-10-16T07:10:58;5.47;;;2.53;;
2998;SDS011;1509;51.964;7.628;2022-10-16T07:13:24;6.70;;;2.80;;
2998;SDS011;1509;51.964;7.628;2022-10-16T07:15:50;4.33;;;2.50;;
2998;SDS011;1509;51.964;7.628;2022-10-16T07:18:16;4.77;;;2.90;;
2998;SDS011;1509;51.964;7.628;2022-10-16T07:20:42;3.53;;;3.20;;
2998;SDS011;1509;51.964;7.628;2022-10-16T07:23:08;4.17;;;3.00;;
2998;SDS011;1509;51.964;7.628;2022-10-16T07:25:34;3.40;;;2.60;;
2998;SDS011;1509;51.964;7.628;2022-10-16T07:28:00;4.00;;;2.97;;
2998;SDS011;1509;51.964;7.628;2022-10-16T07:30:26;3.57;;;2.80;;
2998;SDS011;1509;51.964;7.628;2022-10-16T07:32:52;3.30;;;3.00;;
2998;SDS011;1509;51.964;7.628;2022-10-16T07:35:18;4.60;;;3.47;;
2998;SDS011;1509;51.964;7.628;2022-10-16T07:37:44;5.00;;;2.93;;
2998;SDS011;1509;51.964;7.628;2022-10-16T07:40:10;3.60;;;2.50;;
2998;SDS011;1509;51.964;7.628;2022-10-16T07:42:36;6.57;;;2.10;;
2998;SDS011;1509;51.964;7.628;2022-10-16T07:45:03;3.80;;;2.77;;
2998;SDS011;1509;51.964;7.628;2022-10-16T07:47:29;4.17;;;2.33;;
2998;SDS011;1509;51.964;7.628;2022-10-16T07:49:55;4.63;;;2.30;;
2998;SDS011;1509;51.964;7.628;2022-10-16T07:52:21;2.50;;;2.10;;
2998;SDS011;1509;51.964;7.628;2022-10-16T07:54:47;5.17;;;4.03;;
2998;SDS011;1509;51.964;7.628;2022-10-16T07:57:13;3.50;;;2.00;;
2998;SDS011;1509;51.964;7.628;2022-10-16T07:59:44;3.00;;;2.20;;
2998;SDS011;1509;51.964;7.628;2022-10-16T08:02:10;2.50;;;1.93;;
2998;SDS011;1509;51.964;7.628;2022-10-16T08:04:37;2.93;;;1.93;;
2998;SDS011;1509;51.964;7.628;2022-10-16T08:07:03;3.10;;;1.60;;
2998;SDS011;1509;51.964;7.628;2022-10-16T08:09:29;3.40;;;2.00;;
2998;SDS011;1509;51.964;7.628;2022-10-16T08:11:54;3.40;;;1.90;;
2998;SDS011;1509;51.964;7.628;2022-10-16T08:14:20;4.50;;;1.90;;
2998;SDS011;1509;51.964;7.628;2022-10-16T08:16:46;3.30;;;1.90;;
2998;SDS011;1509;51.964;7.628;2022-10-16T08:19:12;4.73;;;1.83;;
2998;SDS011;1509;51.964;7.628;2022-10-16T08:21:40;4.30;;;2.17;;
2998;SDS011;1509;51.964;7.628;2022-10-16T08:24:06;3.10;;;1.87;;
2998;SDS011;1509;51.964;7.628;2022-10-16T08:26:32;2.67;;;1.70;;
2998;SDS011;1509;51.964;7.628;2022-10-16T08:28:58;3.20;;;1.77;;
2998;SDS011;1509;51.964;7.628;2022-10-16T08:31:24;3.50;;;2.23;;
2998;SDS011;1509;51.964;7.628;2022-10-16T08:33:52;4.60;;;2.17;;
2998;SDS011;1509;51.964;7.628;2022-10-16T08:36:18;4.57;;;1.70;;
2998;SDS011;1509;51.964;7.628;2022-10-16T08:38:47;5.83;;;2.20;;
2998;SDS011;1509;51.964;7.628;2022-10-16T08:46:15;3.30;;;1.70;;
2998;SDS011;1509;51.964;7.628;2022-10-16T08:48:50;3.80;;;2.67;;
2998;SDS011;1509;51.964;7.628;2022-10-16T08:51:24;3.50;;;1.80;;
2998;SDS011;1509;51.964;7.628;2022-10-16T08:53:52;2.40;;;1.50;;
2998;SDS011;1509;51.964;7.628;2022-10-16T08:56:19;4.10;;;1.63;;
2998;SDS011;1509;51.964;7.628;2022-10-16T08:58:45;5.33;;;1.57;;
2998;SDS011;1509;51.964;7.628;2022-10-16T09:01:13;3.33;;;1.50;;
2998;SDS011;1509;51.964;7.628;2022-10-16T09:03:52;3.00;;;1.67;;
2998;SDS011;1509;51.964;7.628;2022-10-16T09:06:31;4.33;;;2.03;;
2998;SDS011;1509;51.964;7.628;2022-10-16T09:09:11;3.07;;;1.57;;
2998;SDS011;1509;51.964;7.628;2022-10-16T09:11:52;3.40;;;2.00;;
2998;SDS011;1509;51.964;7.628;2022-10-16T09:14:23;3.60;;;1.60;;
2998;SDS011;1509;51.964;7.628;2022-10-16T09:16:53;6.13;;;1.97;;
2998;SDS011;1509;51.964;7.628;2022-10-16T09:19:28;2.73;;;1.93;;
2998;SDS011;1509;51.964;7.628;2022-10-16T09:21:57;3.27;;;1.83;;
2998;SDS011;1509;51.964;7.628;2022-10-16T09:24:25;4.80;;;1.80;;
2998;SDS011;1509;51.964;7.628;2022-10-16T09:26:51;4.23;;;1.60;;
2998;SDS011;1509;51.964;7.628;2022-10-16T09:29:18;4.13;;;1.53;;
2998;SDS011;1509;51.964;7.628;2022-10-16T09:31:45;2.63;;;1.67;;
2998;SDS011;1509;51.964;7.628;2022-10-16T09:36:50;3.03;;;1.43;;
2998;SDS011;1509;51.964;7.628;2022-10-16T09:39:17;2.93;;;1.40;;
2998;SDS011;1509;51.964;7.628;2022-10-16T09:41:43;3.00;;;1.43;;
2998;SDS011;1509;51.964;7.628;2022-10-16T09:44:29;3.90;;;1.50;;
2998;SDS011;1509;51.964;7.628;2022-10-16T09:47:03;3.30;;;1.63;;
2998;SDS011;1509;51.964;7.628;2022-10-16T09:49:29;3.50;;;1.63;;
2998;SDS011;1509;51.964;7.628;2022-10-16T09:52:05;5.17;;;1.60;;
2998;SDS011;1509;51.964;7.628;2022-10-16T09:54:36;4.60;;;1.57;;
2998;SDS011;1509;51.964;7.628;2022-10-16T09:57:05;5.87;;;1.70;;
2998;SDS011;1509;51.964;7.628;2022-10-16T09:59:32;3.20;;;1.77;;
2998;SDS011;1509;51.964;7.628;2022-10-16T10:02:00;3.67;;;2.03;;
2998;SDS011;1509;51.964;7.628;2022-10-16T10:04:36;2.23;;;1.50;;
2998;SDS011;1509;51.964;7.628;2022-10-16T10:07:15;3.70;;;1.77;;
2998;SDS011;1509;51.964;7.628;2022-10-16T10:09:50;2.80;;;1.83;;
2998;SDS011;1509;51.964;7.628;2022-10-16T10:12:20;4.50;;;1.83;;
2998;SDS011;1509;51.964;7.628;2022-10-16T10:14:50;3.27;;;2.10;;
2998;SDS011;1509;51.964;7.628;2022-10-16T10:17:26;3.30;;;1.77;;
2998;SDS011;1509;51.964;7.628;2022-10-16T10:19:54;5.57;;;2.83;;
2998;SDS011;1509;51.964;7.628;2022-10-16T10:22:41;5.50;;;2.60;;
2998;SDS011;1509;51.964;7.628;2022-10-16T10:33:23;4.20;;;2.30;;
2998;SDS011;1509;51.964;7.628;2022-10-16T10:36:22;4.40;;;2.70;;
2998;SDS011;1509;51.964;7.628;2022-10-16T10:39:02;6.07;;;2.23;;
2998;SDS011;1509;51.964;7.628;2022-10-16T10:50:24;5.37;;;1.70;;
2998;SDS011;1509;51.964;7.628;2022-10-16T10:53:09;3.20;;;1.77;;
2998;SDS011;1509;51.964;7.628;2022-10-16T10:56:03;2.00;;;1.37;;
2998;SDS011;1509;51.964;7.628;2022-10-16T11:01:54;3.17;;;1.50;;
2998;SDS011;1509;51.964;7.628;2022-10-16T11:07:30;3.50;;;1.40;;
2998;SDS011;1509;51.964;7.628;2022-10-16T11:10:15;1.90;;;1.20;;
2998;SDS011;1509;51.964;7.628;2022-10-16T11:12:52;3.10;;;1.60;;
2998;SDS011;1509;51.964;7.628;2022-10-16T11:15:25;3.50;;;1.50;;
2998;SDS011;1509;51.964;7.628;2022-10-16T11:18:00;5.87;;;1.73;;
2998;SDS011;1509;51.964;7.628;2022-10-16T11:21:08;7.23;;;1.50;;
2998;SDS011;1509;51.964;7.628;2022-10-16T11:23:39;2.60;;;1.33;;
2998;SDS011;1509;51.964;7.628;2022-10-16T11:26:12;4.83;;;1.50;;
2998;SDS011;1509;51.964;7.628;2022-10-16T11:28:48;2.70;;;1.20;;
2998;SDS011;1509;51.964;7.628;2022-10-16T11:31:29;2.87;;;1.30;;
2998;SDS011;1509;51.964;7.628;2022-10-16T11:34:05;5.20;;;1.53;;
2998;SDS011;1509;51.964;7.628;2022-10-16T11:36:56;2.87;;;1.37;;
2998;SDS011;1509;51.964;7.628;2022-10-16T11:39:44;3.63;;;1.07;;
2998;SDS011;1509;51.964;7.628;2022-10-16T11:42:22;6.80;;;1.33;;
2998;SDS011;1509;51.964;7.628;2022-10-16T11:52:55;3.97;;;1.57;;
2998;SDS011;1509;51.964;7.628;2022-10-16T11:55:39;2.40;;;1.50;;
2998;SDS011;1509;51.964;7.628;2022-10-16T11:58:07;2.70;;;1.33;;
2998;SDS011;1509;51.964;7.628;2022-10-16T12:08:35;6.57;;;1.27;;
2998;SDS011;1509;51.964;7.628;2022-10-16T12:17:02;3.73;;;1.20;;
2998;SDS011;1509;51.964;7.628;2022-10-16T12:19:31;2.37;;;1.17;;
2998;SDS011;1509;51.964;7.628;2022-10-16T12:21:58;2.03;;;1.07;;
2998;SDS011;1509;51.964;7.628;2022-10-16T12:26:55;3.03;;;1.20;;
2998;SDS011;1509;51.964;7.628;2022-10-16T12:29:34;3.00;;;1.53;;
2998;SDS011;1509;51.964;7.628;2022-10-16T12:32:05;2.77;;;1.30;;
2998;SDS011;1509;51.964;7.628;2022-10-16T12:34:48;4.83;;;1.37;;
2998;SDS011;1509;51.964;7.628;2022-10-16T12:37:15;3.10;;;1.30;;
2998;SDS011;1509;51.964;7.628;2022-10-16T12:39:50;3.07;;;1.27;;
2998;SDS011;1509;51.964;7.628;2022-10-16T12:42:32;4.80;;;1.10;;
2998;SDS011;1509;51.964;7.628;2022-10-16T12:44:58;4.37;;;1.23;;
2998;SDS011;1509;51.964;7.628;2022-10-16T12:49:56;2.00;;;1.00;;
2998;SDS011;1509;51.964;7.628;2022-10-16T12:52:43;2.67;;;1.40;;
2998;SDS011;1509;51.964;7.628;2022-10-16T12:55:15;3.10;;;1.37;;
2998;SDS011;1509;51.964;7.628;2022-10-16T12:58:04;5.23;;;1.50;;
2998;SDS011;1509;51.964;7.628;2022-10-16T13:00:56;3.13;;;1.30;;
2998;SDS011;1509;51.964;7.628;2022-10-16T13:09:44;8.03;;;1.50;;
2998;SDS011;1509;51.964;7.628;2022-10-16T13:17:52;2.70;;;1.33;;
2998;SDS011;1509;51.964;7.628;2022-10-16T13:20:37;3.30;;;1.50;;
2998;SDS011;1509;51.964;7.628;2022-10-16T13:23:18;1.90;;;1.20;;
2998;SDS011;1509;51.964;7.628;2022-10-16T13:26:02;2.47;;;1.10;;
2998;SDS011;1509;51.964;7.628;2022-10-16T13:28:40;2.27;;;1.30;;
2998;SDS011;1509;51.964;7.628;2022-10-16T13:31:10;5.37;;;1.10;;
2998;SDS011;1509;51.964;7.628;2022-10-16T13:33:58;6.10;;;1.20;;
2998;SDS011;1509;51.964;7.628;2022-10-16T13:36:26;3.97;;;1.47;;
2998;SDS011;1509;51.964;7.628;2022-10-16T13:39:12;2.50;;;1.00;;
2998;SDS011;1509;51.964;7.628;2022-10-16T13:41:39;3.30;;;1.30;;
2998;SDS011;1509;51.964;7.628;2022-10-16T13:44:08;5.10;;;1.63;;
2998;SDS011;1509;51.964;7.628;2022-10-16T13:46:43;3.20;;;1.67;;
2998;SDS011;1509;51.964;7.628;2022-10-16T13:49:16;3.00;;;1.30;;
2998;SDS011;1509;51.964;7.628;2022-10-16T13:51:54;6.47;;;2.00;;
2998;SDS011;1509;51.964;7.628;2022-10-16T13:54:21;6.50;;;1.40;;
2998;SDS011;1509;51.964;7.628;2022-10-16T13:56:48;5.20;;;1.40;;
2998;SDS011;1509;51.964;7.628;2022-10-16T13:59:26;3.50;;;1.20;;
2998;SDS011;1509;51.964;7.628;2022-10-16T14:01:53;2.53;;;1.10;;
2998;SDS011;1509;51.964;7.628;2022-10-16T14:04:20;3.03;;;1.40;;
2998;SDS011;1509;51.964;7.628;2022-10-16T14:06:48;4.20;;;1.30;;
2998;SDS011;1509;51.964;7.628;2022-10-16T14:11:50;2.57;;;1.43;;
2998;SDS011;1509;51.964;7.628;2022-10-16T14:14:18;5.13;;;1.27;;
2998;SDS011;1509;51.964;7.628;2022-10-16T14:16:44;2.83;;;1.70;;
2998;SDS011;1509;51.964;7.628;2022-10-16T14:19:16;2.07;;;1.30;;
2998;SDS011;1509;51.964;7.628;2022-10-16T14:21:46;2.77;;;1.30;;
2998;SDS011;1509;51.964;7.628;2022-10-16T14:24:13;2.67;;;1.63;;
2998;SDS011;1509;51.964;7.628;2022-10-16T14:26:43;3.20;;;1.60;;
2998;SDS011;1509;51.964;7.628;2022-10-16T14:29:14;4.30;;;1.60;;
2998;SDS011;1509;51.964;7.628;2022-10-16T14:31:40;3.57;;;1.63;;
2998;SDS011;1509;51.964;7.628;2022-10-16T14:34:25;3.63;;;1.40;;
2998;SDS011;1509;51.964;7.628;2022-10-16T14:36:53;2.90;;;1.47;;
2998;SDS011;1509;51.964;7.628;2022-10-16T14:39:20;2.60;;;1.50;;
2998;SDS011;1509;51.964;7.628;2022-10-16T14:41:47;3.47;;;1.50;;
2998;SDS011;1509;51.964;7.628;2022-10-16T14:44:13;3.77;;;1.70;;
2998;SDS011;1509;51.964;7.628;2022-10-16T14:46:41;4.23;;;1.60;;
2998;SDS011;1509;51.964;7.628;2022-10-16T14:51:36;2.77;;;1.90;;
2998;SDS011;1509;51.964;7.628;2022-10-16T14:54:03;2.80;;;1.43;;
2998;SDS011;1509;51.964;7.628;2022-10-16T14:56:29;2.87;;;1.80;;
2998;SDS011;1509;51.964;7.628;2022-10-16T14:58:56;4.73;;;2.30;;
2998;SDS011;1509;51.964;7.628;2022-10-16T15:01:22;2.80;;;1.57;;
2998;SDS011;1509;51.964;7.628;2022-10-16T15:03:48;4.03;;;2.07;;
2998;SDS011;1509;51.964;7.628;2022-10-16T15:06:17;2.93;;;1.47;;
2998;SDS011;1509;51.964;7.628;2022-10-16T15:08:42;3.23;;;2.10;;
2998;SDS011;1509;51.964;7.628;2022-10-16T15:11:10;4.83;;;1.80;;
2998;SDS011;1509;51.964;7.628;2022-10-16T15:13:41;5.10;;;2.07;;
2998;SDS011;1509;51.964;7.628;2022-10-16T15:16:10;3.50;;;1.30;;
2998;SDS011;1509;51.964;7.628;2022-10-16T15:18:37;4.40;;;2.00;;
2998;SDS011;1509;51.964;7.628;2022-10-16T15:21:03;2.90;;;1.93;;
2998;SDS011;1509;51.964;7.628;2022-10-16T15:23:29;3.00;;;1.40;;
2998;SDS011;1509;51.964;7.628;2022-10-16T15:25:55;2.80;;;1.60;;
2998;SDS011;1509;51.964;7.628;2022-10-16T15:28:22;2.70;;;1.60;;
2998;SDS011;1509;51.964;7.628;2022-10-16T15:30:49;3.40;;;1.70;;
2998;SDS011;1509;51.964;7.628;2022-10-16T15:33:17;4.60;;;1.70;;
2998;SDS011;1509;51.964;7.628;2022-10-16T15:35:47;3.97;;;1.80;;
2998;SDS011;1509;51.964;7.628;2022-10-16T15:38:14;2.53;;;1.87;;
2998;SDS011;1509;51.964;7.628;2022-10-16T15:40:40;3.57;;;1.77;;
2998;SDS011;1509;51.964;7.628;2022-10-16T15:43:09;3.60;;;1.90;;
2998;SDS011;1509;51.964;7.628;2022-10-16T15:45:35;3.67;;;2.07;;
2998;SDS011;1509;51.964;7.628;2022-10-16T15:48:01;3.40;;;2.00;;
2998;SDS011;1509;51.964;7.628;2022-10-16T15:50:27;8.33;;;2.47;;
2998;SDS011;1509;51.964;7.628;2022-10-16T15:52:53;3.23;;;2.00;;
2998;SDS011;1509;51.964;7.628;2022-10-16T15:55:19;2.87;;;1.53;;
2998;SDS011;1509;51.964;7.628;2022-10-16T15:57:45;3.73;;;1.80;;
2998;SDS011;1509;51.964;7.628;2022-10-16T16:00:13;2.80;;;2.20;;
2998;SDS011;1509;51.964;7.628;2022-10-16T16:02:42;4.33;;;1.97;;
2998;SDS011;1509;51.964;7.628;2022-10-16T16:05:09;4.03;;;2.17;;
2998;SDS011;1509;51.964;7.628;2022-10-16T16:07:35;3.10;;;1.60;;
2998;SDS011;1509;51.964;7.628;2022-10-16T16:10:02;3.43;;;1.90;;
2998;SDS011;1509;51.964;7.628;2022-10-16T16:12:29;5.17;;;1.90;;
2998;SDS011;1509;51.964;7.628;2022-10-16T16:14:55;5.30;;;2.27;;
2998;SDS011;1509;51.964;7.628;2022-10-16T16:17:20;4.13;;;1.70;;
2998;SDS011;1509;51.964;7.628;2022-10-16T16:19:50;3.33;;;1.70;;
2998;SDS011;1509;51.964;7.628;2022-10-16T16:22:16;5.70;;;2.10;;
2998;SDS011;1509;51.964;7.628;2022-10-16T16:24:42;4.67;;;2.50;;
2998;SDS011;1509;51.964;7.628;2022-10-16T16:27:08;5.97;;;2.50;;
2998;SDS011;1509;51.964;7.628;2022-10-16T16:29:34;7.33;;;3.20;;
2998;SDS011;1509;51.964;7.628;2022-10-16T16:32:00;6.57;;;3.00;;
2998;SDS011;1509;51.964;7.628;2022-10-16T16:34:27;4.47;;;3.37;;
2998;SDS011;1509;51.964;7.628;2022-10-16T16:36:53;8.67;;;2.73;;
2998;SDS011;1509;51.964;7.628;2022-10-16T16:39:19;7.43;;;3.83;;
2998;SDS011;1509;51.964;7.628;2022-10-16T16:41:46;8.50;;;4.40;;
2998;SDS011;1509;51.964;7.628;2022-10-16T16:44:12;7.70;;;3.60;;
2998;SDS011;1509;51.964;7.628;2022-10-16T16:46:38;7.33;;;4.60;;
2998;SDS011;1509;51.964;7.628;2022-10-16T16:49:04;6.00;;;3.90;;
2998;SDS011;1509;51.964;7.628;2022-10-16T16:51:31;6.60;;;3.60;;
2998;SDS011;1509;51.964;7.628;2022-10-16T16:53:57;4.37;;;3.20;;
2998;SDS011;1509;51.964;7.628;2022-10-16T16:56:24;7.10;;;3.57;;
2998;SDS011;1509;51.964;7.628;2022-10-16T16:58:51;5.73;;;4.20;;